To NAV CANADA Home Page Login to a new session Search on AWWS site Feedback and Comments Disclaimer Vers la page française équivalente Tips FAQ What's new on the site To the Forecasts and Observations / NOTAM section To "File a Flight Plan" website Publications and other links Update of the User's profile FIC Telephone Numbers My Weather Data Folder Route Weather Data Regional Weather Data Local Weather Data To the Forecasts and Observations / NOTAM section
Request Generated 02/23/2017 at 20:46:31 UTC . Weather information available at that time is displayed.

METAR/TAF

MONTREAL/PIERRE-ELLIOTT-TRUDEAU INTL/QC    

METAR CYUL 232000Z 22018G24KT 15SM BKN022 OVC070 11/09 A2954 RMK
SC7AC1 SLP004=
SPECI CYUL 231940Z 23016KT 15SM OVC022 11/08 A2953 RMK SC8 SLP003=
METAR CYUL 231900Z 22009KT 10SM -RA OVC022 09/07 A2953 RMK SC8 -RA
INTMT SLP001=
SPECI CYUL 231838Z 22015KT 8SM -RA OVC025 11/07 A2953 RMK SC8 -RA
INTMT SLP001=
SPECI CYUL 231819Z 22019KT 15SM BKN025 OVC035 12/08 A2952 RMK SC6SC2
SLP999 DENSITY ALT 200FT=
METAR CYUL 231800Z 25004KT 15SM -RA BKN033 OVC050 10/06 A2953 RMK
SC6SC2 SLP001=

TAF CYUL 232038Z 2321/2418 24015KT P6SM BKN030 TEMPO 2321/2324 FEW007
BKN020
FM240000 28008KT P6SM BKN030
FM240400 VRB03KT P6SM FEW010 PROB30 2406/2413 3/4SM BR FEW005
BKN020
FM241400 03008KT P6SM SCT015 BKN070
FM241600 03010KT 6SM -RA BR BKN015 OVC060
RMK NXT FCST BY 240000Z=
Your time UTC time
Weather data provided by Environment Canada and NAV CANADA